LFMK

Carcassonne Airport

Airport
ICAO code
LFMK
IATA Code
CCF
Summary
ICAO Region
EUR
ICAO Territory
Location

, Languedoc-Roussillon

Serving
Carcassonne
Elevation
433 ft
Coordinates
43° 12' 58" N , 2° 18' 23" E
Metar
Observation
LFMK 280530Z AUTO 27008KT 240V310 9999 -RA SCT020/// BKN035/// BKN056/// ///CB 09/08 Q1017 TEMPO BKN013
Station
Carcassonne
Date/Time
2022-11-28 05:30:00
Wind direction
270°
Wind speed
08 kts
Lowest cloud amount
scattered clouds
Temperature
9°C
Dew point
8°C
Humidity
93%
QNH
1017 hPa
Weather condition
light rain

Runways

Designator Length Width Surface Rops
10/28 2050 45 ASP Yes/Yes

Airport map

Aerial View

SKYbrary Partners:

Safety knowledge contributed by: